• Join FlightAware (Why Join?)
  • Login
  • US Flag 
08:41AM EDT


 

Airport Tracker/Info


-or-


 

Live Flight TrackerFlight Track Log ✈ ASQ4406 ✈ 20-May-2013 ✈ KCRP - KIAH

Flight Track Log - Related Links

Times and Time Zones

All times are in EDT time to prevent confusion due to time zone crossing. See the ASQ4406 flight status page for this flight to view local times or setup timezone preferences in your user account.

Time Position Orientation Groundspeed Altitude Reporting Facility
EDT Latitude Longitude Course Direction KTS MPH feet Rate Location/Type
08:48PM 27.7483 -97.4822 133° Southeast 147 169 1,900  Level Houston Center
08:49PM 27.7722 -97.4294 63° Northeast 275 316 3,900 2,040 Climbing Houston Center
08:50PM 27.8022 -97.4181 19° North 294 338 5,100 2,700 Climbing Houston Center
08:50PM 27.8458 -97.4097 10° North 304 350 6,600 2,580 Climbing Houston Center
08:51PM 27.8833 -97.3975 16° North 291 335 7,800 2,160 Climbing Houston Center
08:52PM 27.9433 -97.3953 35° Northeast  Level FlightAware Approximate
08:52PM 27.9703 -97.3719 15° North 292 336 10,100  Level Houston Center
08:53PM 27.9924 -97.3561 35° Northeast  Level FlightAware Approximate
08:53PM 28.0492 -97.3119 34° Northeast 340 391 10,700  Level Houston Center
08:54PM 28.1286 -97.2372 40° Northeast 369 425 12,000 1,260 Climbing Houston Center
08:55PM 28.2142 -97.1697 35° Northeast 375 432 13,400 1,380 Climbing Houston Center
08:56PM 28.3042 -97.1050 32° Northeast 379 436 14,900 1,560 Climbing Houston Center
08:57PM 28.4106 -97.0256 33° Northeast 381 438 16,600 960 Climbing Houston Center
08:58PM 28.5036 -96.9561 33° Northeast 394 453 16,900 120 Climbing Houston Center
08:59PM 28.6017 -96.8828 33° Northeast 415 478 16,900  Level Houston Center
09:00PM 28.6981 -96.8089 34° Northeast 420 483 16,900  Level Houston Center
09:01PM 28.7942 -96.7386 33° Northeast 415 478 16,900  Level Houston Center
09:02PM 28.8903 -96.6661 33° Northeast 415 478 17,000  Climbing Houston Center
09:03PM 29.0050 -96.5789 34° Northeast 415 478 17,000  Level Houston Center
09:04PM 29.1003 -96.5072 33° Northeast 414 476 17,000 -120 Level Houston Center
09:05PM 29.1750 -96.4494 34° Northeast 415 478 16,800 -1,140 Descending Houston Center
09:06PM 29.2836 -96.3683 33° Northeast 414 476 14,900 -1,920 Descending Houston Center
09:08PM 29.3817 -96.2928 34° Northeast 405 466 12,500 -2,160 Descending Houston Center
09:08PM 29.4767 -96.2200 34° Northeast 391 450 10,400 -1,380 Descending Houston Center
09:09PM 29.5489 -96.1567 37° Northeast 355 409 10,000 -300 Descending Houston Center
09:10PM 29.5994 -96.0597 59° Northeast 325 374 9,900 -1,020 Descending Houston Center
09:11PM 29.6425 -95.9781 59° Northeast 287 330 8,000 -1,380 Descending Houston Center
09:13PM 29.7225 -95.9328 26° Northeast 295 339 7,000 -540 Descending Houston Center
09:13PM 29.7989 -95.9169 10° North 301 346 7,000  Level Houston Center
09:15PM 29.8919 -95.9047 North 281 323 7,000 -240 Level Houston Center
09:15PM 29.9503 -95.8969 North 262 302 6,600 -600 Descending Houston Center
09:16PM 29.9631 -95.8967 North 261 300 6,400 -540 Descending Houston Center
09:16PM 29.9936 -95.8389 59° Northeast 243 280 6,100 -300 Descending Houston Center
09:17PM 29.9953 -95.8294 78° East 253 291 6,100 -600 Level Houston Center
09:18PM 29.9911 -95.7622 94° East 238 274 5,500 -720 Descending Houston Center
09:18PM 29.9919 -95.7519 85° East 242 278 5,400 -420 Descending Houston Center
09:19PM 29.9931 -95.6811 89° East 224 258 5,000 -480 Descending Houston Center
09:20PM 29.9928 -95.6231 90° East 187 215 4,500 -780 Descending Houston Center
09:21PM 29.9928 -95.5689 90° East 179 206 3,700 -1,080 Descending Houston Center
09:21PM 29.9933 -95.5542 88° East 179 206 3,400 -900 Descending Houston Center
09:22PM 29.9922 -95.5161 92° East 172 198 2,800 -900 Descending Houston Center
09:22PM 29.9933 -95.4986 86° East 176 203 2,500 -900 Descending Houston Center
09:23PM 29.9933 -95.4603 90° East 161 185 1,900 -780 Descending Houston Center
09:23PM 29.9933 -95.4469 90° East 171 197 1,700 -600 Descending Houston Center